Time;durP1;ratioP1;P1;durP2;ratioP2;P2;SDS_P1;SDS_P2;PMS_P1;PMS_P2;Temp;Humidity;BMP_temperature;BMP_pressure;BME280_temperature;BME280_humidity;BME280_pressure;Samples;Min_cycle;Max_cycle;Signal;HPM_P1;HPM_P2
2023/03/03 00:00:27;;;;;;;1999.90;999.90;;;;;;;-143.11;100.00;65634.97;5084111;28;20181;-65
2023/03/03 00:02:52;;;;;;;1999.90;999.90;;;;;;;-143.11;100.00;65634.97;5084511;28;20196;-64
2023/03/03 00:05:18;;;;;;;1999.90;999.90;;;;;;;-143.11;100.00;65634.97;5084552;28;20176;-64
2023/03/03 00:07:44;;;;;;;1999.90;999.90;;;;;;;-143.11;100.00;65634.97;5084096;28;20172;-64
2023/03/03 00:10:11;;;;;;;1999.90;999.90;;;;;;;-143.11;100.00;65634.97;5084214;28;20217;-65
2023/03/03 00:12:48;;;;;;;1999.90;999.90;;;;;;;-143.11;100.00;65634.97;5084170;28;20201;-63
2023/03/03 00:15:19;;;;;;;1999.90;999.90;;;;;;;-143.11;100.00;65634.97;5084350;28;20175;-64
2023/03/03 00:17:44;;;;;;;1999.90;999.90;;;;;;;-143.11;100.00;65634.97;5084225;28;20221;-64
2023/03/03 00:20:28;;;;;;;1999.90;999.90;;;;;;;-143.11;100.00;65634.97;5083708;28;20364;-64
2023/03/03 00:22:54;;;;;;;1999.90;999.90;;;;;;;-143.11;100.00;65634.97;5083570;28;20171;-64
2023/03/03 00:25:33;;;;;;;1999.90;999.90;;;;;;;-143.11;100.00;65634.97;5083691;28;20346;-64
2023/03/03 00:28:26;;;;;;;1999.90;999.90;;;;;;;-143.11;100.00;65634.97;5083619;28;20168;-64
2023/03/03 00:30:54;;;;;;;1999.90;999.90;;;;;;;-143.11;100.00;65634.97;5084403;28;20203;-64
2023/03/03 00:33:28;;;;;;;1999.90;999.90;;;;;;;-143.11;100.00;65634.97;5084098;28;20342;-63
2023/03/03 00:35:56;;;;;;;1999.90;999.90;;;;;;;-143.11;100.00;65634.97;5084199;28;20178;-64
2023/03/03 00:38:22;;;;;;;1999.90;999.90;;;;;;;-143.11;100.00;65634.97;5083308;28;20208;-63
2023/03/03 00:40:48;;;;;;;1999.90;999.90;;;;;;;-143.11;100.00;65634.97;5084053;28;20168;-66
2023/03/03 00:43:21;;;;;;;1999.90;999.90;;;;;;;-143.11;100.00;65634.97;5083543;28;20166;-64
2023/03/03 00:45:51;;;;;;;1999.90;999.90;;;;;;;-143.11;100.00;65634.97;5083572;28;20171;-64
2023/03/03 00:48:28;;;;;;;1999.90;999.90;;;;;;;-143.11;100.00;65634.97;5084035;28;20242;-64
2023/03/03 00:50:59;;;;;;;1999.90;999.90;;;;;;;-143.11;100.00;65634.97;5083101;28;20196;-64
2023/03/03 00:53:27;;;;;;;1999.90;999.90;;;;;;;-143.11;100.00;65634.97;5083883;28;20177;-64
2023/03/03 00:55:52;;;;;;;1999.90;999.90;;;;;;;-143.11;100.00;65634.97;5083446;28;20167;-65
2023/03/03 00:58:20;;;;;;;1999.90;999.90;;;;;;;-143.11;100.00;65634.97;5083467;28;20163;-64
2023/03/03 01:00:47;;;;;;;1999.90;999.90;;;;;;;-143.11;100.00;65634.97;5083317;28;20166;-64
2023/03/03 01:03:16;;;;;;;1999.90;999.90;;;;;;;-143.11;100.00;65634.97;5083039;28;20172;-64
2023/03/03 01:05:42;;;;;;;1999.90;999.90;;;;;;;-143.11;100.00;65634.97;5083854;28;20216;-64
2023/03/03 01:08:08;;;;;;;1999.90;999.90;;;;;;;-143.11;100.00;65634.97;5083260;28;20173;-64
2023/03/03 01:10:37;;;;;;;1999.90;999.90;;;;;;;-143.11;100.00;65634.97;5083358;28;20179;-64
2023/03/03 01:13:04;;;;;;;1999.90;999.90;;;;;;;-143.11;100.00;65634.97;5083667;28;20234;-65
2023/03/03 01:15:30;;;;;;;1999.90;999.90;;;;;;;-143.11;100.00;65634.97;5083278;28;20167;-65
2023/03/03 01:17:55;;;;;;;1999.90;999.90;;;;;;;-143.11;100.00;65634.97;5083159;28;20247;-65
2023/03/03 01:20:21;;;;;;;1999.90;999.90;;;;;;;-143.11;100.00;65634.97;5084000;28;20169;-65
2023/03/03 01:22:46;;;;;;;1999.90;999.90;;;;;;;-143.11;100.00;65634.97;5083167;28;20170;-64
2023/03/03 01:25:11;;;;;;;1999.90;999.90;;;;;;;-143.11;100.00;65634.97;5083856;28;20172;-64
2023/03/03 01:27:37;;;;;;;1999.90;999.90;;;;;;;-143.11;100.00;65634.97;5082831;28;20424;-64
2023/03/03 01:30:04;;;;;;;1999.90;999.90;;;;;;;-143.11;100.00;65634.97;5083159;28;20279;-65
2023/03/03 01:32:30;;;;;;;1999.90;999.90;;;;;;;-143.11;100.00;65634.97;5084129;28;20203;-64
2023/03/03 01:34:55;;;;;;;1999.90;999.90;;;;;;;-143.11;100.00;65634.97;5086742;28;20201;-64
2023/03/03 01:37:21;;;;;;;1999.90;999.90;;;;;;;-143.11;100.00;65634.97;5086647;28;20173;-63
2023/03/03 01:39:53;;;;;;;1999.90;999.90;;;;;;;-143.11;100.00;65634.97;5086675;28;20169;-63
2023/03/03 01:42:20;;;;;;;1999.90;999.90;;;;;;;-143.11;100.00;65634.97;5087083;28;20169;-64
2023/03/03 01:44:46;;;;;;;1999.90;999.90;;;;;;;-143.11;100.00;65634.97;5086537;28;20237;-64
2023/03/03 01:47:32;;;;;;;1999.90;999.90;;;;;;;-143.11;100.00;65634.97;5086453;28;20180;-64
2023/03/03 01:50:06;;;;;;;1999.90;999.90;;;;;;;-143.11;100.00;65634.97;5087017;28;20171;-64
2023/03/03 01:52:41;;;;;;;1999.90;999.90;;;;;;;-143.11;100.00;65634.97;5086755;28;20192;-64
2023/03/03 01:55:20;;;;;;;1999.90;999.90;;;;;;;-143.11;100.00;65634.97;5086294;28;20422;-64
2023/03/03 01:57:58;;;;;;;1999.90;999.90;;;;;;;-143.11;100.00;65634.97;5086802;28;20230;-63
2023/03/03 02:00:24;;;;;;;1999.90;999.90;;;;;;;-143.11;100.00;65634.97;5086874;28;20439;-64
2023/03/03 02:02:50;;;;;;;1999.90;999.90;;;;;;;-143.11;100.00;65634.97;5086152;28;20233;-65
2023/03/03 02:05:16;;;;;;;1999.90;999.90;;;;;;;-143.11;100.00;65634.97;5086242;28;20178;-64
2023/03/03 02:07:43;;;;;;;1999.90;999.90;;;;;;;-143.11;100.00;65634.97;5086151;28;20175;-64
2023/03/03 02:10:12;;;;;;;1999.90;999.90;;;;;;;-143.11;100.00;65634.97;5086052;28;20243;-65
2023/03/03 02:12:39;;;;;;;1999.90;999.90;;;;;;;-143.11;100.00;65634.97;5086486;28;20198;-64
2023/03/03 02:15:28;;;;;;;1999.90;999.90;;;;;;;-143.11;100.00;65634.97;5085904;28;20187;-64
2023/03/03 02:17:56;;;;;;;1999.90;999.90;;;;;;;-143.11;100.00;65634.97;5085871;28;20235;-64
2023/03/03 02:20:41;;;;;;;1999.90;999.90;;;;;;;-143.11;100.00;65634.97;5086456;28;20278;-64
2023/03/03 02:23:14;;;;;;;1999.90;999.90;;;;;;;-143.11;100.00;65634.97;5086020;28;20235;-64
2023/03/03 02:25:54;;;;;;;1999.90;999.90;;;;;;;-143.11;100.00;65634.97;5085975;28;20173;-64
2023/03/03 02:28:22;;;;;;;1999.90;999.90;;;;;;;-143.11;100.00;65634.97;5086014;28;20483;-64
2023/03/03 02:30:47;;;;;;;1999.90;999.90;;;;;;;-143.11;100.00;65634.97;5085695;28;20182;-63
2023/03/03 02:33:12;;;;;;;1999.90;999.90;;;;;;;-143.11;100.00;65634.97;5085545;28;20230;-63
2023/03/03 02:35:40;;;;;;;1999.90;999.90;;;;;;;-143.11;100.00;65634.97;5085545;28;20221;-63
2023/03/03 02:38:28;;;;;;;1999.90;999.90;;;;;;;-143.11;100.00;65634.97;5085413;28;20172;-63
2023/03/03 02:41:08;;;;;;;1999.90;999.90;;;;;;;-143.11;100.00;65634.97;5085483;28;20173;-63
2023/03/03 02:43:49;;;;;;;1999.90;999.90;;;;;;;-143.11;100.00;65634.97;5085661;28;20201;-65
2023/03/03 02:46:15;;;;;;;1999.90;999.90;;;;;;;-143.11;100.00;65634.97;5085975;28;20177;-65
2023/03/03 02:48:40;;;;;;;1999.90;999.90;;;;;;;-143.11;100.00;65634.97;5085644;28;20384;-66
2023/03/03 02:51:06;;;;;;;1999.90;999.90;;;;;;;-143.11;100.00;65634.97;5085282;28;20171;-67
2023/03/03 02:53:31;;;;;;;1999.90;999.90;;;;;;;-143.11;100.00;65634.97;5085580;28;20195;-66
2023/03/03 02:55:56;;;;;;;1999.90;999.90;;;;;;;-143.11;100.00;65634.97;5085679;28;20170;-66
2023/03/03 02:58:22;;;;;;;1999.90;999.90;;;;;;;-143.11;100.00;65634.97;5085618;28;20353;-64
2023/03/03 03:00:47;;;;;;;1999.90;999.90;;;;;;;-143.11;100.00;65634.97;5085638;28;20239;-64
2023/03/03 03:03:13;;;;;;;1999.90;999.90;;;;;;;-143.11;100.00;65634.97;5085033;28;20172;-64
2023/03/03 03:05:39;;;;;;;1999.90;999.90;;;;;;;-143.11;100.00;65634.97;5085050;28;20164;-64
2023/03/03 03:08:04;;;;;;;1999.90;999.90;;;;;;;-143.11;100.00;65634.97;5085306;28;20164;-64
2023/03/03 03:10:29;;;;;;;1999.90;999.90;;;;;;;-143.11;100.00;65634.97;5085147;28;20392;-65
2023/03/03 03:12:55;;;;;;;1999.90;999.90;;;;;;;-143.11;100.00;65634.97;5084583;28;20229;-65
2023/03/03 03:15:20;;;;;;;1999.90;999.90;;;;;;;-143.11;100.00;65634.97;5084767;28;20215;-65
2023/03/03 03:17:45;;;;;;;1999.90;999.90;;;;;;;-143.11;100.00;65634.97;5084662;28;20217;-65
2023/03/03 03:20:11;;;;;;;1999.90;999.90;;;;;;;-143.11;100.00;65634.97;5085598;28;20166;-65
2023/03/03 03:22:37;;;;;;;1999.90;999.90;;;;;;;-143.11;100.00;65634.97;5084585;28;20172;-64
2023/03/03 03:25:02;;;;;;;1999.90;999.90;;;;;;;-143.11;100.00;65634.97;5085174;28;20159;-65
2023/03/03 03:27:27;;;;;;;1999.90;999.90;;;;;;;-143.11;100.00;65634.97;5084578;28;20196;-65
2023/03/03 03:29:53;;;;;;;1999.90;999.90;;;;;;;-143.11;100.00;65634.97;5085021;28;20166;-65
2023/03/03 03:32:18;;;;;;;1999.90;999.90;;;;;;;-143.11;100.00;65634.97;5084865;28;20231;-66
2023/03/03 03:34:44;;;;;;;1999.90;999.90;;;;;;;-143.11;100.00;65634.97;5084402;28;20168;-65
2023/03/03 03:37:09;;;;;;;1999.90;999.90;;;;;;;-143.11;100.00;65634.97;5085140;28;20166;-65
2023/03/03 03:39:35;;;;;;;1999.90;999.90;;;;;;;-143.11;100.00;65634.97;5084370;28;20172;-65
2023/03/03 03:42:00;;;;;;;1999.90;999.90;;;;;;;-143.11;100.00;65634.97;5084403;28;20173;-66
2023/03/03 03:44:26;;;;;;;1999.90;999.90;;;;;;;-143.11;100.00;65634.97;5084744;28;20245;-65
2023/03/03 03:46:51;;;;;;;1999.90;999.90;;;;;;;-143.11;100.00;65634.97;5084165;28;20354;-68
2023/03/03 03:49:16;;;;;;;1999.90;999.90;;;;;;;-143.11;100.00;65634.97;5084610;28;20165;-66
2023/03/03 03:51:42;;;;;;;1999.90;999.90;;;;;;;-143.11;100.00;65634.97;5083748;28;20238;-66
2023/03/03 03:54:07;;;;;;;1999.90;999.90;;;;;;;-143.11;100.00;65634.97;5083938;28;20188;-66
2023/03/03 03:56:33;;;;;;;1999.90;999.90;;;;;;;-143.11;100.00;65634.97;5084051;28;20161;-66
2023/03/03 03:58:59;;;;;;;1999.90;999.90;;;;;;;-143.11;100.00;65634.97;5084022;28;20164;-65
2023/03/03 04:01:25;;;;;;;1999.90;999.90;;;;;;;-143.11;100.00;65634.97;5084127;28;20166;-66
2023/03/03 04:03:50;;;;;;;1999.90;999.90;;;;;;;-143.11;100.00;65634.97;5083928;28;20164;-66
2023/03/03 04:06:16;;;;;;;1999.90;999.90;;;;;;;-143.11;100.00;65634.97;5084430;28;20183;-66
2023/03/03 04:08:41;;;;;;;1999.90;999.90;;;;;;;-143.11;100.00;65634.97;5084484;28;20379;-66
2023/03/03 04:11:06;;;;;;;1999.90;999.90;;;;;;;-143.11;100.00;65634.97;5083779;28;20175;-66
2023/03/03 04:13:34;;;;;;;1999.90;999.90;;;;;;;-143.11;100.00;65634.97;5083775;28;20168;-66
2023/03/03 04:16:00;;;;;;;1999.90;999.90;;;;;;;-143.11;100.00;65634.97;5083778;28;20168;-66
2023/03/03 04:18:25;;;;;;;1999.90;999.90;;;;;;;-143.11;100.00;65634.97;5084081;28;20264;-66
2023/03/03 04:20:53;;;;;;;1999.90;999.90;;;;;;;-143.11;100.00;65634.97;5083772;28;20192;-67
2023/03/03 04:23:18;;;;;;;1999.90;999.90;;;;;;;-143.11;100.00;65634.97;5083668;28;20202;-66
2023/03/03 04:25:47;;;;;;;1999.90;999.90;;;;;;;-143.11;100.00;65634.97;5084055;28;20165;-66
2023/03/03 04:28:13;;;;;;;1999.90;999.90;;;;;;;-143.11;100.00;65634.97;5083588;28;20195;-66
2023/03/03 04:30:39;;;;;;;1999.90;999.90;;;;;;;-143.11;100.00;65634.97;5083704;28;20163;-62
2023/03/03 04:33:04;;;;;;;1999.90;999.90;;;;;;;-143.11;100.00;65634.97;5083994;28;20212;-63
2023/03/03 04:35:30;;;;;;;1999.90;999.90;;;;;;;-143.11;100.00;65634.97;5084303;28;20474;-66
2023/03/03 04:37:55;;;;;;;1999.90;999.90;;;;;;;-143.11;100.00;65634.97;5083574;28;20179;-66
2023/03/03 04:40:20;;;;;;;1999.90;999.90;;;;;;;-143.11;100.00;65634.97;5083630;28;20237;-66
2023/03/03 04:42:46;;;;;;;1999.90;999.90;;;;;;;-143.11;100.00;65634.97;5083709;28;20166;-66
2023/03/03 04:45:11;;;;;;;1999.90;999.90;;;;;;;-143.11;100.00;65634.97;5083453;28;20161;-68
2023/03/03 04:47:38;;;;;;;1999.90;999.90;;;;;;;-143.11;100.00;65634.97;5082954;28;20177;-66
2023/03/03 04:50:04;;;;;;;1999.90;999.90;;;;;;;-143.11;100.00;65634.97;5083509;28;20165;-65
2023/03/03 04:52:29;;;;;;;1999.90;999.90;;;;;;;-143.11;100.00;65634.97;5083301;28;20234;-65
2023/03/03 04:54:54;;;;;;;1999.90;999.90;;;;;;;-143.11;100.00;65634.97;5083358;28;20197;-66
2023/03/03 04:57:20;;;;;;;1999.90;999.90;;;;;;;-143.11;100.00;65634.97;5083370;28;20383;-66
2023/03/03 04:59:45;;;;;;;1999.90;999.90;;;;;;;-143.11;100.00;65634.97;5083677;28;20177;-65
2023/03/03 05:02:12;;;;;;;1999.90;999.90;;;;;;;-143.11;100.00;65634.97;5083297;28;20200;-65
2023/03/03 05:04:37;;;;;;;1999.90;999.90;;;;;;;-143.11;100.00;65634.97;5083409;28;20256;-66
2023/03/03 05:07:03;;;;;;;1999.90;999.90;;;;;;;-143.11;100.00;65634.97;5084113;28;20187;-66
2023/03/03 05:09:28;;;;;;;1999.90;999.90;;;;;;;-143.11;100.00;65634.97;5087265;28;20188;-66
2023/03/03 05:11:53;;;;;;;1999.90;999.90;;;;;;;-143.11;100.00;65634.97;5086853;28;20193;-67
2023/03/03 05:14:19;;;;;;;1999.90;999.90;;;;;;;-143.11;100.00;65634.97;5086683;28;20193;-66
2023/03/03 05:16:44;;;;;;;1999.90;999.90;;;;;;;-143.11;100.00;65634.97;5086856;28;20216;-64
2023/03/03 05:19:10;;;;;;;1999.90;999.90;;;;;;;-143.11;100.00;65634.97;5086754;28;20171;-63
2023/03/03 05:21:35;;;;;;;1999.90;999.90;;;;;;;-143.11;100.00;65634.97;5087394;28;20173;-65
2023/03/03 05:24:01;;;;;;;1999.90;999.90;;;;;;;-143.11;100.00;65634.97;5087026;28;20169;-64
2023/03/03 05:26:26;;;;;;;1999.90;999.90;;;;;;;-143.11;100.00;65634.97;5086677;28;20430;-64
2023/03/03 05:28:51;;;;;;;1999.90;999.90;;;;;;;-143.11;100.00;65634.97;5086726;28;20170;-65
2023/03/03 05:31:17;;;;;;;1999.90;999.90;;;;;;;-143.11;100.00;65634.97;5087119;28;20235;-65
2023/03/03 05:33:42;;;;;;;1999.90;999.90;;;;;;;-143.11;100.00;65634.97;5086667;28;20176;-65
2023/03/03 05:36:08;;;;;;;1999.90;999.90;;;;;;;-143.11;100.00;65634.97;5086790;28;20169;-65
2023/03/03 05:38:33;;;;;;;1999.90;999.90;;;;;;;-143.11;100.00;65634.97;5086683;28;20193;-65
2023/03/03 05:40:59;;;;;;;1999.90;999.90;;;;;;;-143.11;100.00;65634.97;5087030;28;20165;-64
2023/03/03 05:43:24;;;;;;;1999.90;999.90;;;;;;;-143.11;100.00;65634.97;5086689;28;20178;-64
2023/03/03 05:45:55;;;;;;;1999.90;999.90;;;;;;;-143.11;100.00;65634.97;5086410;28;20165;-64
2023/03/03 05:48:20;;;;;;;1999.90;999.90;;;;;;;-143.11;100.00;65634.97;5086880;28;20173;-65
2023/03/03 05:50:45;;;;;;;1999.90;999.90;;;;;;;-143.11;100.00;65634.97;5086566;28;20192;-63
2023/03/03 05:53:11;;;;;;;1999.90;999.90;;;;;;;-143.11;100.00;65634.97;5086139;28;20193;-64
2023/03/03 05:55:36;;;;;;;1999.90;999.90;;;;;;;-143.11;100.00;65634.97;5086193;28;20165;-65
2023/03/03 05:58:01;;;;;;;1999.90;999.90;;;;;;;-143.11;100.00;65634.97;5086409;28;20162;-64
2023/03/03 06:00:27;;;;;;;1999.90;999.90;;;;;;;-143.11;100.00;65634.97;5086109;28;20165;-62
2023/03/03 06:02:52;;;;;;;1999.90;999.90;;;;;;;-143.11;100.00;65634.97;5086075;28;20189;-64
2023/03/03 06:05:18;;;;;;;1999.90;999.90;;;;;;;-143.11;100.00;65634.97;5086505;28;20169;-64
2023/03/03 06:07:43;;;;;;;1999.90;999.90;;;;;;;-143.11;100.00;65634.97;5086475;28;20165;-64
2023/03/03 06:10:09;;;;;;;1999.90;999.90;;;;;;;-143.11;100.00;65634.97;5086691;28;20165;-63
2023/03/03 06:12:36;;;;;;;1999.90;999.90;;;;;;;-143.11;100.00;65634.97;5085653;28;20193;-64
2023/03/03 06:15:01;;;;;;;1999.90;999.90;;;;;;;-143.11;100.00;65634.97;5086243;28;20469;-64
2023/03/03 06:17:26;;;;;;;1999.90;999.90;;;;;;;-143.11;100.00;65634.97;5085357;28;20240;-64
2023/03/03 06:19:52;;;;;;;1999.90;999.90;;;;;;;-143.11;100.00;65634.97;5085416;28;20191;-64
2023/03/03 06:22:17;;;;;;;1999.90;999.90;;;;;;;-143.11;100.00;65634.97;5086161;28;20176;-63
2023/03/03 06:24:43;;;;;;;1999.90;999.90;;;;;;;-143.11;100.00;65634.97;5085576;28;20169;-64
2023/03/03 06:27:08;;;;;;;1999.90;999.90;;;;;;;-143.11;100.00;65634.97;5085603;28;20170;-63
2023/03/03 06:29:33;;;;;;;1999.90;999.90;;;;;;;-143.11;100.00;65634.97;5086099;28;20165;-65
2023/03/03 06:31:59;;;;;;;1999.90;999.90;;;;;;;-143.11;100.00;65634.97;5085141;28;20197;-64
2023/03/03 06:34:24;;;;;;;1999.90;999.90;;;;;;;-143.11;100.00;65634.97;5085312;28;20170;-63
2023/03/03 06:36:51;;;;;;;1999.90;999.90;;;;;;;-143.11;100.00;65634.97;5085768;28;20165;-63
2023/03/03 06:39:16;;;;;;;1999.90;999.90;;;;;;;-143.11;100.00;65634.97;5085494;28;20203;-64
2023/03/03 06:41:41;;;;;;;1999.90;999.90;;;;;;;-143.11;100.00;65634.97;5084974;28;20165;-64
2023/03/03 06:44:07;;;;;;;1999.90;999.90;;;;;;;-143.11;100.00;65634.97;5085200;28;20170;-63
2023/03/03 06:46:32;;;;;;;1999.90;999.90;;;;;;;-143.11;100.00;65634.97;5084963;28;20195;-62
2023/03/03 06:48:58;;;;;;;1999.90;999.90;;;;;;;-143.11;100.00;65634.97;5085087;28;20230;-65
2023/03/03 06:51:32;;;;;;;1999.90;999.90;;;;;;;-143.11;100.00;65634.97;5084936;28;20374;-62
2023/03/03 06:54:01;;;;;;;1999.90;999.90;;;;;;;-143.11;100.00;65634.97;5085297;28;20207;-65
2023/03/03 06:56:27;;;;;;;1999.90;999.90;;;;;;;-143.11;100.00;65634.97;5085156;28;20165;-65
2023/03/03 06:58:57;;;;;;;1999.90;999.90;;;;;;;-143.11;100.00;65634.97;5084891;28;20193;-65
2023/03/03 07:01:24;;;;;;;1999.90;999.90;;;;;;;-143.11;100.00;65634.97;5084847;28;20219;-64
2023/03/03 07:03:49;;;;;;;1999.90;999.90;;;;;;;-143.11;100.00;65634.97;5084863;28;20166;-64
2023/03/03 07:06:22;;;;;;;1999.90;999.90;;;;;;;-143.11;100.00;65634.97;5084816;28;20176;-65
2023/03/03 07:08:49;;;;;;;1999.90;999.90;;;;;;;-143.11;100.00;65634.97;5084776;28;20168;-64
2023/03/03 07:11:18;;;;;;;1999.90;999.90;;;;;;;-143.11;100.00;65634.97;5084695;28;20240;-67
2023/03/03 07:13:47;;;;;;;1999.90;999.90;;;;;;;-143.11;100.00;65634.97;5085468;28;20169;-65
2023/03/03 07:16:14;;;;;;;1999.90;999.90;;;;;;;-143.11;100.00;65634.97;5085000;28;20165;-66
2023/03/03 07:18:49;;;;;;;1999.90;999.90;;;;;;;-143.11;100.00;65634.97;5085287;28;20378;-65
2023/03/03 07:21:32;;;;;;;1999.90;999.90;;;;;;;-143.11;100.00;65634.97;5085439;28;20169;-67
2023/03/03 07:24:00;;;;;;;1999.90;999.90;;;;;;;-143.11;100.00;65634.97;5084858;28;20211;-65
2023/03/03 07:26:33;;;;;;;1999.90;999.90;;;;;;;-143.11;100.00;65634.97;5084483;28;20201;-66
2023/03/03 07:29:00;;;;;;;1999.90;999.90;;;;;;;-143.11;100.00;65634.97;5084855;28;20203;-66
2023/03/03 07:31:38;;;;;;;1999.90;999.90;;;;;;;-143.11;100.00;65634.97;5083655;28;20210;-66
2023/03/03 07:34:29;;;;;;;1999.90;999.90;;;;;;;-143.11;100.00;65634.97;5084184;28;20260;-66
2023/03/03 07:37:04;;;;;;;1999.90;999.90;;;;;;;-143.11;100.00;65634.97;5078919;28;20185;-68
2023/03/03 07:39:38;;;;;;;1999.90;999.90;;;;;;;-143.11;100.00;65634.97;5084907;28;20200;-66
2023/03/03 07:42:43;;;;;;;1999.90;999.90;;;;;;;-143.11;100.00;65634.97;5084268;28;20181;-66
2023/03/03 07:45:27;;;;;;;1999.90;999.90;;;;;;;-143.11;100.00;65634.97;5084272;28;20191;-64
2023/03/03 07:48:01;;;;;;;1999.90;999.90;;;;;;;-143.11;100.00;65634.97;5085028;28;20180;-65
2023/03/03 07:50:27;;;;;;;1999.90;999.90;;;;;;;-143.11;100.00;65634.97;5084807;28;20178;-66
2023/03/03 07:52:59;;;;;;;1999.90;999.90;;;;;;;-143.11;100.00;65634.97;5084079;28;20258;-66
2023/03/03 07:55:36;;;;;;;1999.90;999.90;;;;;;;-143.11;100.00;65634.97;5084051;28;20194;-66
2023/03/03 07:58:15;;;;;;;1999.90;999.90;;;;;;;-143.11;100.00;65634.97;5084580;28;20169;-65
2023/03/03 08:01:18;;;;;;;1999.90;999.90;;;;;;;-143.11;100.00;65634.97;5083772;28;20169;-65
2023/03/03 08:03:45;;;;;;;1999.90;999.90;;;;;;;-143.11;100.00;65634.97;5084637;28;20187;-64
2023/03/03 08:06:34;;;;;;;1999.90;999.90;;;;;;;-143.11;100.00;65634.97;5084121;28;20174;-66
2023/03/03 08:09:09;;;;;;;1999.90;999.90;;;;;;;-143.11;100.00;65634.97;5084421;28;20478;-64
2023/03/03 08:11:36;;;;;;;1999.90;999.90;;;;;;;-143.11;100.00;65634.97;5083934;28;20205;-64
2023/03/03 08:14:10;;;;;;;1999.90;999.90;;;;;;;-143.11;100.00;65634.97;5084356;28;20206;-66
2023/03/03 08:16:37;;;;;;;1999.90;999.90;;;;;;;-143.11;100.00;65634.97;5083942;28;20213;-64
2023/03/03 08:19:04;;;;;;;1999.90;999.90;;;;;;;-143.11;100.00;65634.97;5084293;28;20300;-68
2023/03/03 08:21:33;;;;;;;1999.90;999.90;;;;;;;-143.11;100.00;65634.97;5083922;28;20189;-67
2023/03/03 08:23:59;;;;;;;1999.90;999.90;;;;;;;-143.11;100.00;65634.97;5083773;28;20193;-67
2023/03/03 08:26:28;;;;;;;1999.90;999.90;;;;;;;-143.11;100.00;65634.97;5084245;28;20236;-68
2023/03/03 08:28:54;;;;;;;1999.90;999.90;;;;;;;-143.11;100.00;65634.97;5084140;28;20183;-66
2023/03/03 08:31:19;;;;;;;1999.90;999.90;;;;;;;-143.11;100.00;65634.97;5084090;28;20173;-66
2023/03/03 08:33:45;;;;;;;1999.90;999.90;;;;;;;-143.11;100.00;65634.97;5083791;28;20487;-66
2023/03/03 08:36:12;;;;;;;1999.90;999.90;;;;;;;-143.11;100.00;65634.97;5084116;28;20280;-67
2023/03/03 08:38:38;;;;;;;1999.90;999.90;;;;;;;-143.11;100.00;65634.97;5083705;28;20178;-68
2023/03/03 08:41:04;;;;;;;1999.90;999.90;;;;;;;-143.11;100.00;65634.97;5084011;28;20171;-67
2023/03/03 08:43:30;;;;;;;1999.90;999.90;;;;;;;-143.11;100.00;65634.97;5087986;28;20194;-67
2023/03/03 08:46:00;;;;;;;1999.90;999.90;;;;;;;-143.11;100.00;65634.97;5088258;28;20178;-66
2023/03/03 08:48:26;;;;;;;1999.90;999.90;;;;;;;-143.11;100.00;65634.97;5088367;28;20172;-65
2023/03/03 08:50:52;;;;;;;1999.90;999.90;;;;;;;-143.11;100.00;65634.97;5087618;28;20195;-64
2023/03/03 08:53:19;;;;;;;1999.90;999.90;;;;;;;-143.11;100.00;65634.97;5087368;28;20217;-63
2023/03/03 08:55:45;;;;;;;1999.90;999.90;;;;;;;-143.11;100.00;65634.97;5087943;28;20172;-62
2023/03/03 08:58:10;;;;;;;1999.90;999.90;;;;;;;-143.11;100.00;65634.97;5087590;28;20235;-63
2023/03/03 09:00:37;;;;;;;1999.90;999.90;;;;;;;-143.11;100.00;65634.97;5087887;28;20243;-64
2023/03/03 09:03:06;;;;;;;1999.90;999.90;;;;;;;-143.11;100.00;65634.97;5087860;28;20164;-66
2023/03/03 09:05:33;;;;;;;1999.90;999.90;;;;;;;-143.11;100.00;65634.97;5087222;28;20232;-65
2023/03/03 09:07:59;;;;;;;1999.90;999.90;;;;;;;-143.11;100.00;65634.97;5087680;28;20163;-68
2023/03/03 09:10:34;;;;;;;1999.90;999.90;;;;;;;-143.11;100.00;65634.97;5087308;28;20183;-67
2023/03/03 09:13:06;;;;;;;1999.90;999.90;;;;;;;-143.11;100.00;65634.97;5086994;28;20206;-66
2023/03/03 09:15:34;;;;;;;1999.90;999.90;;;;;;;-143.11;100.00;65634.97;5087988;28;20178;-66
2023/03/03 09:18:23;;;;;;;1999.90;999.90;;;;;;;-143.11;100.00;65634.97;5086838;28;20213;-67
2023/03/03 09:20:53;;;;;;;1999.90;999.90;;;;;;;-143.11;100.00;65634.97;5087469;28;20226;-65
2023/03/03 09:23:41;;;;;;;1999.90;999.90;;;;;;;-143.11;100.00;65634.97;5086983;28;20164;-66
2023/03/03 09:26:45;;;;;;;1999.90;999.90;;;;;;;-143.11;100.00;65634.97;5086991;28;20176;-66
2023/03/03 09:29:13;;;;;;;1999.90;999.90;;;;;;;-143.11;100.00;65634.97;5086804;28;20195;-65
2023/03/03 09:31:43;;;;;;;1999.90;999.90;;;;;;;-143.11;100.00;65634.97;5086451;28;20200;-66
2023/03/03 09:34:33;;;;;;;1999.90;999.90;;;;;;;-143.11;100.00;65634.97;5086818;28;20248;-64
2023/03/03 09:36:58;;;;;;;1999.90;999.90;;;;;;;-143.11;100.00;65634.97;5086836;28;20196;-64
2023/03/03 09:39:26;;;;;;;1999.90;999.90;;;;;;;-143.11;100.00;65634.97;5087348;28;20177;-64
2023/03/03 09:42:09;;;;;;;1999.90;999.90;;;;;;;-143.11;100.00;65634.97;5086741;28;20173;-67
2023/03/03 09:44:44;;;;;;;1999.90;999.90;;;;;;;-143.11;100.00;65634.97;5087376;28;20169;-65
2023/03/03 09:47:42;;;;;;;1999.90;999.90;;;;;;;-143.11;100.00;65634.97;5087004;28;20206;-66
2023/03/03 09:50:33;;;;;;;1999.90;999.90;;;;;;;-143.11;100.00;65634.97;5086496;28;20196;-64
2023/03/03 09:53:25;;;;;;;1999.90;999.90;;;;;;;-143.11;100.00;65634.97;5085496;28;20238;-64
2023/03/03 09:56:00;;;;;;;1999.90;999.90;;;;;;;-143.11;100.00;65634.97;5086506;28;20177;-64
2023/03/03 09:58:44;;;;;;;1999.90;999.90;;;;;;;-143.11;100.00;65634.97;5086478;28;20200;-68
2023/03/03 10:01:35;;;;;;;1999.90;999.90;;;;;;;-143.11;100.00;65634.97;5086934;28;20170;-71
2023/03/03 10:04:04;;;;;;;1999.90;999.90;;;;;;;-143.11;100.00;65634.97;5086619;28;20173;-67
2023/03/03 10:06:41;;;;;;;1999.90;999.90;;;;;;;-143.11;100.00;65634.97;5086210;28;20478;-67
2023/03/03 10:09:45;;;;;;;1999.90;999.90;;;;;;;-143.11;100.00;65634.97;5086336;28;20224;-68
2023/03/03 10:12:13;;;;;;;1999.90;999.90;;;;;;;-143.11;100.00;65634.97;5085784;28;20192;-65
2023/03/03 10:14:53;;;;;;;1999.90;999.90;;;;;;;-143.11;100.00;65634.97;5086100;28;20169;-64
2023/03/03 10:17:37;;;;;;;1999.90;999.90;;;;;;;-143.11;100.00;65634.97;5086581;28;20216;-63
2023/03/03 10:20:02;;;;;;;1999.90;999.90;;;;;;;-143.11;100.00;65634.97;5086502;28;20334;-64
2023/03/03 10:22:41;;;;;;;1999.90;999.90;;;;;;;-143.11;100.00;65634.97;5085962;28;20169;-65
2023/03/03 10:25:12;;;;;;;1999.90;999.90;;;;;;;-143.11;100.00;65634.97;5086258;28;20184;-62
2023/03/03 10:28:02;;;;;;;1999.90;999.90;;;;;;;-143.11;100.00;65634.97;5085903;28;20245;-66
2023/03/03 10:30:34;;;;;;;1999.90;999.90;;;;;;;-143.11;100.00;65634.97;5086165;28;20169;-62
2023/03/03 10:33:21;;;;;;;1999.90;999.90;;;;;;;-143.11;100.00;65634.97;5085709;28;20201;-62
2023/03/03 10:36:09;;;;;;;1999.90;999.90;;;;;;;-143.11;100.00;65634.97;5086142;28;20161;-62
2023/03/03 10:38:56;;;;;;;1999.90;999.90;;;;;;;-143.11;100.00;65634.97;5086374;28;20169;-63
2023/03/03 10:41:49;;;;;;;1999.90;999.90;;;;;;;-143.11;100.00;65634.97;5085875;28;20169;-65
2023/03/03 10:44:45;;;;;;;1999.90;999.90;;;;;;;-143.11;100.00;65634.97;5085672;28;20231;-64